Main page
METAR-TAF:

METAR-TAF

Airports :

RAF Cranwell

Cranwell, England

latitude: 53-02N, longitude: 000-30W, elevation: 67 m

Current weather observation

The report was made 33 minutes ago, at 02:50 UTC
Wind 5 kt from the Northwest
Temperature 16°C
Humidity 82%
Pressure 1020 hPa
Visibility 10 km or more

METAR: EGYD 240250Z AUTO 31005KT 9999 NCD 16/13 Q1020

Time: 04:23 (03:23 UTC)


TAF: missing

Weather observations and forecasts of more than 4000 airports (METAR and TAF reports).

The available stations are represented by yellow and red dots on the map.

Hover mouse over dot to see the name of the station.

Then click to see weather observations and forecasts.

To change the map : click on the green buttons with a black cross to zoom in, on the green button with a dash to zoom out, or on the green arrows for adjacent maps.


METAR-TAF: